sensor_id;sensor_type;location;lat;lon;timestamp;P1;durP1;ratioP1;P2;durP2;ratioP2
55827;SDS011;41758;51.992;5.890;2023-03-14T00:00:49;4.07;;;2.17;;
55827;SDS011;41758;51.992;5.890;2023-03-14T00:03:15;7.00;;;2.30;;
55827;SDS011;41758;51.992;5.890;2023-03-14T00:05:41;7.25;;;2.40;;
55827;SDS011;41758;51.992;5.890;2023-03-14T00:08:07;5.50;;;2.40;;
55827;SDS011;41758;51.992;5.890;2023-03-14T00:10:32;8.18;;;2.83;;
55827;SDS011;41758;51.992;5.890;2023-03-14T00:13:00;5.47;;;2.38;;
55827;SDS011;41758;51.992;5.890;2023-03-14T00:15:26;8.48;;;2.50;;
55827;SDS011;41758;51.992;5.890;2023-03-14T00:17:52;5.18;;;2.30;;
55827;SDS011;41758;51.992;5.890;2023-03-14T00:20:17;7.32;;;2.78;;
55827;SDS011;41758;51.992;5.890;2023-03-14T00:22:43;7.90;;;2.35;;
55827;SDS011;41758;51.992;5.890;2023-03-14T00:25:10;5.03;;;2.13;;
55827;SDS011;41758;51.992;5.890;2023-03-14T00:27:36;5.40;;;1.98;;
55827;SDS011;41758;51.992;5.890;2023-03-14T00:30:02;4.63;;;2.22;;
55827;SDS011;41758;51.992;5.890;2023-03-14T00:32:28;3.63;;;2.05;;
55827;SDS011;41758;51.992;5.890;2023-03-14T00:34:54;3.40;;;2.00;;
55827;SDS011;41758;51.992;5.890;2023-03-14T00:37:19;4.28;;;1.90;;
55827;SDS011;41758;51.992;5.890;2023-03-14T00:39:45;3.63;;;1.80;;
55827;SDS011;41758;51.992;5.890;2023-03-14T00:42:11;4.72;;;1.95;;
55827;SDS011;41758;51.992;5.890;2023-03-14T00:44:37;3.38;;;1.75;;
55827;SDS011;41758;51.992;5.890;2023-03-14T00:47:05;3.40;;;1.70;;
55827;SDS011;41758;51.992;5.890;2023-03-14T00:49:31;5.38;;;1.80;;
55827;SDS011;41758;51.992;5.890;2023-03-14T00:52:00;6.60;;;1.88;;
55827;SDS011;41758;51.992;5.890;2023-03-14T00:54:26;3.33;;;1.70;;
55827;SDS011;41758;51.992;5.890;2023-03-14T00:56:51;5.70;;;1.60;;
55827;SDS011;41758;51.992;5.890;2023-03-14T00:59:17;5.55;;;1.60;;
55827;SDS011;41758;51.992;5.890;2023-03-14T01:01:43;5.40;;;2.00;;
55827;SDS011;41758;51.992;5.890;2023-03-14T01:04:09;3.78;;;1.63;;
55827;SDS011;41758;51.992;5.890;2023-03-14T01:06:35;5.38;;;1.95;;
55827;SDS011;41758;51.992;5.890;2023-03-14T01:09:00;6.40;;;2.22;;
55827;SDS011;41758;51.992;5.890;2023-03-14T01:11:27;4.55;;;1.90;;
55827;SDS011;41758;51.992;5.890;2023-03-14T01:13:58;6.88;;;2.00;;
55827;SDS011;41758;51.992;5.890;2023-03-14T01:16:28;5.72;;;2.13;;
55827;SDS011;41758;51.992;5.890;2023-03-14T01:18:59;5.53;;;2.20;;
55827;SDS011;41758;51.992;5.890;2023-03-14T01:21:26;6.97;;;2.15;;
55827;SDS011;41758;51.992;5.890;2023-03-14T01:23:54;6.32;;;2.20;;
55827;SDS011;41758;51.992;5.890;2023-03-14T01:26:22;5.68;;;2.03;;
55827;SDS011;41758;51.992;5.890;2023-03-14T01:28:50;4.07;;;2.00;;
55827;SDS011;41758;51.992;5.890;2023-03-14T01:31:18;7.68;;;2.25;;
55827;SDS011;41758;51.992;5.890;2023-03-14T01:33:43;6.10;;;2.30;;
55827;SDS011;41758;51.992;5.890;2023-03-14T01:36:09;4.70;;;2.13;;
55827;SDS011;41758;51.992;5.890;2023-03-14T01:38:36;8.23;;;2.50;;
55827;SDS011;41758;51.992;5.890;2023-03-14T01:41:05;5.70;;;2.38;;
55827;SDS011;41758;51.992;5.890;2023-03-14T01:43:31;6.80;;;2.10;;
55827;SDS011;41758;51.992;5.890;2023-03-14T01:48:34;10.23;;;2.40;;
55827;SDS011;41758;51.992;5.890;2023-03-14T01:51:02;6.30;;;2.10;;
55827;SDS011;41758;51.992;5.890;2023-03-14T01:53:45;5.82;;;2.10;;
55827;SDS011;41758;51.992;5.890;2023-03-14T01:56:14;7.47;;;2.30;;
55827;SDS011;41758;51.992;5.890;2023-03-14T01:58:44;8.38;;;2.13;;
55827;SDS011;41758;51.992;5.890;2023-03-14T02:01:13;8.40;;;2.72;;
55827;SDS011;41758;51.992;5.890;2023-03-14T02:03:47;8.43;;;2.60;;
55827;SDS011;41758;51.992;5.890;2023-03-14T02:06:19;9.23;;;2.40;;
55827;SDS011;41758;51.992;5.890;2023-03-14T02:08:55;4.82;;;2.13;;
55827;SDS011;41758;51.992;5.890;2023-03-14T02:11:26;8.27;;;2.08;;
55827;SDS011;41758;51.992;5.890;2023-03-14T02:14:19;7.13;;;2.65;;
55827;SDS011;41758;51.992;5.890;2023-03-14T02:17:11;11.48;;;2.55;;
55827;SDS011;41758;51.992;5.890;2023-03-14T02:22:55;8.10;;;2.40;;
55827;SDS011;41758;51.992;5.890;2023-03-14T02:25:26;9.65;;;2.70;;
55827;SDS011;41758;51.992;5.890;2023-03-14T02:27:58;6.97;;;2.38;;
55827;SDS011;41758;51.992;5.890;2023-03-14T02:30:28;8.48;;;2.33;;
55827;SDS011;41758;51.992;5.890;2023-03-14T02:33:04;5.18;;;2.50;;
55827;SDS011;41758;51.992;5.890;2023-03-14T02:35:37;4.65;;;2.30;;
55827;SDS011;41758;51.992;5.890;2023-03-14T02:43:09;10.02;;;2.28;;
55827;SDS011;41758;51.992;5.890;2023-03-14T02:45:39;5.68;;;2.50;;
55827;SDS011;41758;51.992;5.890;2023-03-14T02:48:30;7.22;;;2.30;;
55827;SDS011;41758;51.992;5.890;2023-03-14T02:50:59;4.78;;;2.20;;
55827;SDS011;41758;51.992;5.890;2023-03-14T02:53:29;7.05;;;2.03;;
55827;SDS011;41758;51.992;5.890;2023-03-14T02:56:00;6.57;;;1.80;;
55827;SDS011;41758;51.992;5.890;2023-03-14T02:58:27;7.18;;;2.05;;
55827;SDS011;41758;51.992;5.890;2023-03-14T03:01:00;6.50;;;2.40;;
55827;SDS011;41758;51.992;5.890;2023-03-14T03:03:25;8.07;;;2.20;;
55827;SDS011;41758;51.992;5.890;2023-03-14T03:05:52;6.25;;;2.35;;
55827;SDS011;41758;51.992;5.890;2023-03-14T03:08:20;7.78;;;2.50;;
55827;SDS011;41758;51.992;5.890;2023-03-14T03:10:48;6.47;;;2.00;;
55827;SDS011;41758;51.992;5.890;2023-03-14T03:13:15;6.50;;;2.00;;
55827;SDS011;41758;51.992;5.890;2023-03-14T03:15:42;9.80;;;2.13;;
55827;SDS011;41758;51.992;5.890;2023-03-14T03:18:08;7.00;;;2.30;;
55827;SDS011;41758;51.992;5.890;2023-03-14T03:20:34;8.32;;;2.05;;
55827;SDS011;41758;51.992;5.890;2023-03-14T03:23:00;6.18;;;1.92;;
55827;SDS011;41758;51.992;5.890;2023-03-14T03:25:26;5.88;;;2.00;;
55827;SDS011;41758;51.992;5.890;2023-03-14T03:27:52;7.10;;;2.05;;
55827;SDS011;41758;51.992;5.890;2023-03-14T03:30:19;7.90;;;1.98;;
55827;SDS011;41758;51.992;5.890;2023-03-14T03:32:45;6.15;;;2.05;;
55827;SDS011;41758;51.992;5.890;2023-03-14T03:35:11;6.70;;;1.95;;
55827;SDS011;41758;51.992;5.890;2023-03-14T03:37:38;4.95;;;2.10;;
55827;SDS011;41758;51.992;5.890;2023-03-14T03:40:05;6.25;;;1.83;;
55827;SDS011;41758;51.992;5.890;2023-03-14T03:42:34;8.50;;;2.25;;
55827;SDS011;41758;51.992;5.890;2023-03-14T03:45:00;5.93;;;2.33;;
55827;SDS011;41758;51.992;5.890;2023-03-14T03:47:29;9.38;;;2.60;;
55827;SDS011;41758;51.992;5.890;2023-03-14T03:49:55;6.13;;;2.53;;
55827;SDS011;41758;51.992;5.890;2023-03-14T03:52:21;8.65;;;2.75;;
55827;SDS011;41758;51.992;5.890;2023-03-14T03:54:47;8.57;;;2.70;;
55827;SDS011;41758;51.992;5.890;2023-03-14T03:57:12;10.38;;;2.70;;
55827;SDS011;41758;51.992;5.890;2023-03-14T03:59:38;9.93;;;2.30;;
55827;SDS011;41758;51.992;5.890;2023-03-14T04:02:07;13.32;;;2.20;;
55827;SDS011;41758;51.992;5.890;2023-03-14T04:04:32;7.20;;;2.60;;
55827;SDS011;41758;51.992;5.890;2023-03-14T04:07:00;7.43;;;2.70;;
55827;SDS011;41758;51.992;5.890;2023-03-14T04:09:26;7.88;;;2.40;;
55827;SDS011;41758;51.992;5.890;2023-03-14T04:12:12;8.30;;;2.97;;
55827;SDS011;41758;51.992;5.890;2023-03-14T04:14:57;9.43;;;3.15;;
55827;SDS011;41758;51.992;5.890;2023-03-14T04:17:22;7.70;;;2.72;;
55827;SDS011;41758;51.992;5.890;2023-03-14T04:19:49;9.38;;;2.90;;
55827;SDS011;41758;51.992;5.890;2023-03-14T04:22:17;7.15;;;2.45;;
55827;SDS011;41758;51.992;5.890;2023-03-14T04:24:47;12.45;;;2.65;;
55827;SDS011;41758;51.992;5.890;2023-03-14T04:27:13;4.88;;;2.08;;
55827;SDS011;41758;51.992;5.890;2023-03-14T04:29:44;7.05;;;2.63;;
55827;SDS011;41758;51.992;5.890;2023-03-14T04:32:14;7.27;;;2.77;;
55827;SDS011;41758;51.992;5.890;2023-03-14T04:34:40;10.02;;;3.00;;
55827;SDS011;41758;51.992;5.890;2023-03-14T04:37:06;10.00;;;2.83;;
55827;SDS011;41758;51.992;5.890;2023-03-14T04:39:39;6.55;;;2.15;;
55827;SDS011;41758;51.992;5.890;2023-03-14T04:42:13;8.88;;;2.28;;
55827;SDS011;41758;51.992;5.890;2023-03-14T04:44:39;7.82;;;2.45;;
55827;SDS011;41758;51.992;5.890;2023-03-14T04:47:06;9.38;;;2.47;;
55827;SDS011;41758;51.992;5.890;2023-03-14T04:49:32;6.68;;;2.10;;
55827;SDS011;41758;51.992;5.890;2023-03-14T04:51:59;8.10;;;2.28;;
55827;SDS011;41758;51.992;5.890;2023-03-14T04:54:26;6.97;;;2.30;;
55827;SDS011;41758;51.992;5.890;2023-03-14T04:56:55;7.38;;;2.25;;
55827;SDS011;41758;51.992;5.890;2023-03-14T04:59:22;8.75;;;2.30;;
55827;SDS011;41758;51.992;5.890;2023-03-14T05:01:50;10.45;;;2.30;;
55827;SDS011;41758;51.992;5.890;2023-03-14T05:04:24;4.82;;;1.85;;
55827;SDS011;41758;51.992;5.890;2023-03-14T05:07:09;9.52;;;2.00;;
55827;SDS011;41758;51.992;5.890;2023-03-14T05:09:46;5.53;;;2.03;;
55827;SDS011;41758;51.992;5.890;2023-03-14T05:12:30;7.60;;;2.00;;
55827;SDS011;41758;51.992;5.890;2023-03-14T05:15:02;6.70;;;1.65;;
55827;SDS011;41758;51.992;5.890;2023-03-14T05:17:55;5.70;;;2.10;;
55827;SDS011;41758;51.992;5.890;2023-03-14T05:20:49;7.40;;;1.90;;
55827;SDS011;41758;51.992;5.890;2023-03-14T05:23:25;6.63;;;1.80;;
55827;SDS011;41758;51.992;5.890;2023-03-14T05:26:09;4.70;;;1.70;;
55827;SDS011;41758;51.992;5.890;2023-03-14T05:28:53;5.40;;;1.70;;
55827;SDS011;41758;51.992;5.890;2023-03-14T05:31:46;5.63;;;1.60;;
55827;SDS011;41758;51.992;5.890;2023-03-14T05:34:34;3.85;;;1.52;;
55827;SDS011;41758;51.992;5.890;2023-03-14T05:37:16;4.40;;;1.70;;
55827;SDS011;41758;51.992;5.890;2023-03-14T05:39:53;5.30;;;1.50;;
55827;SDS011;41758;51.992;5.890;2023-03-14T05:45:26;6.95;;;1.90;;
55827;SDS011;41758;51.992;5.890;2023-03-14T05:48:08;7.47;;;1.85;;
55827;SDS011;41758;51.992;5.890;2023-03-14T05:51:00;6.68;;;1.83;;
55827;SDS011;41758;51.992;5.890;2023-03-14T05:53:36;5.75;;;1.75;;
55827;SDS011;41758;51.992;5.890;2023-03-14T05:56:20;5.18;;;1.92;;
55827;SDS011;41758;51.992;5.890;2023-03-14T05:58:57;3.90;;;1.65;;
55827;SDS011;41758;51.992;5.890;2023-03-14T06:01:39;4.35;;;1.40;;
55827;SDS011;41758;51.992;5.890;2023-03-14T06:04:12;5.22;;;2.08;;
55827;SDS011;41758;51.992;5.890;2023-03-14T06:06:38;4.60;;;1.63;;
55827;SDS011;41758;51.992;5.890;2023-03-14T06:09:05;4.10;;;1.77;;
55827;SDS011;41758;51.992;5.890;2023-03-14T06:11:34;4.57;;;1.80;;
55827;SDS011;41758;51.992;5.890;2023-03-14T06:13:59;7.60;;;2.17;;
55827;SDS011;41758;51.992;5.890;2023-03-14T06:16:25;5.68;;;1.85;;
55827;SDS011;41758;51.992;5.890;2023-03-14T06:18:52;4.28;;;1.75;;
55827;SDS011;41758;51.992;5.890;2023-03-14T06:21:19;4.40;;;1.90;;
55827;SDS011;41758;51.992;5.890;2023-03-14T06:23:47;5.55;;;2.10;;
55827;SDS011;41758;51.992;5.890;2023-03-14T06:26:13;4.63;;;1.90;;
55827;SDS011;41758;51.992;5.890;2023-03-14T06:28:38;4.68;;;2.33;;
55827;SDS011;41758;51.992;5.890;2023-03-14T06:31:04;5.57;;;2.08;;
55827;SDS011;41758;51.992;5.890;2023-03-14T06:33:37;4.47;;;2.00;;
55827;SDS011;41758;51.992;5.890;2023-03-14T06:36:04;4.63;;;2.13;;
55827;SDS011;41758;51.992;5.890;2023-03-14T06:38:32;5.30;;;2.53;;
55827;SDS011;41758;51.992;5.890;2023-03-14T06:41:04;4.78;;;2.40;;
55827;SDS011;41758;51.992;5.890;2023-03-14T06:43:37;6.18;;;2.33;;
55827;SDS011;41758;51.992;5.890;2023-03-14T06:46:04;6.13;;;2.50;;
55827;SDS011;41758;51.992;5.890;2023-03-14T06:48:31;5.50;;;2.50;;
55827;SDS011;41758;51.992;5.890;2023-03-14T06:50:57;5.05;;;2.30;;
55827;SDS011;41758;51.992;5.890;2023-03-14T06:53:23;8.65;;;2.67;;
55827;SDS011;41758;51.992;5.890;2023-03-14T06:55:50;6.45;;;2.60;;
55827;SDS011;41758;51.992;5.890;2023-03-14T06:58:16;6.25;;;2.50;;
55827;SDS011;41758;51.992;5.890;2023-03-14T07:00:44;6.00;;;2.70;;
55827;SDS011;41758;51.992;5.890;2023-03-14T07:03:13;6.40;;;2.60;;
55827;SDS011;41758;51.992;5.890;2023-03-14T07:05:42;6.10;;;2.80;;
55827;SDS011;41758;51.992;5.890;2023-03-14T07:08:08;5.28;;;2.60;;
55827;SDS011;41758;51.992;5.890;2023-03-14T07:10:34;6.03;;;2.67;;
55827;SDS011;41758;51.992;5.890;2023-03-14T07:13:00;5.43;;;2.60;;
55827;SDS011;41758;51.992;5.890;2023-03-14T07:15:29;4.60;;;2.47;;
55827;SDS011;41758;51.992;5.890;2023-03-14T07:17:59;6.20;;;2.97;;
55827;SDS011;41758;51.992;5.890;2023-03-14T07:20:25;6.03;;;2.70;;
55827;SDS011;41758;51.992;5.890;2023-03-14T07:22:51;6.53;;;2.78;;
55827;SDS011;41758;51.992;5.890;2023-03-14T07:25:24;7.97;;;3.58;;
55827;SDS011;41758;51.992;5.890;2023-03-14T07:27:50;6.38;;;3.13;;
55827;SDS011;41758;51.992;5.890;2023-03-14T07:30:16;8.60;;;2.85;;
55827;SDS011;41758;51.992;5.890;2023-03-14T07:32:42;5.40;;;2.70;;
55827;SDS011;41758;51.992;5.890;2023-03-14T07:35:08;7.10;;;2.70;;
55827;SDS011;41758;51.992;5.890;2023-03-14T07:37:37;5.53;;;2.63;;
55827;SDS011;41758;51.992;5.890;2023-03-14T07:40:03;6.38;;;2.65;;
55827;SDS011;41758;51.992;5.890;2023-03-14T07:42:32;4.78;;;1.95;;
55827;SDS011;41758;51.992;5.890;2023-03-14T07:45:13;3.80;;;1.80;;
55827;SDS011;41758;51.992;5.890;2023-03-14T07:47:39;6.00;;;1.90;;
55827;SDS011;41758;51.992;5.890;2023-03-14T07:50:05;3.38;;;1.70;;
55827;SDS011;41758;51.992;5.890;2023-03-14T07:52:31;4.97;;;1.92;;
55827;SDS011;41758;51.992;5.890;2023-03-14T07:54:57;2.08;;;1.45;;
55827;SDS011;41758;51.992;5.890;2023-03-14T07:57:22;1.83;;;1.20;;
55827;SDS011;41758;51.992;5.890;2023-03-14T07:59:49;3.22;;;1.27;;
55827;SDS011;41758;51.992;5.890;2023-03-14T08:02:15;2.50;;;1.10;;
55827;SDS011;41758;51.992;5.890;2023-03-14T08:04:41;3.20;;;1.27;;
55827;SDS011;41758;51.992;5.890;2023-03-14T08:07:07;2.38;;;1.13;;
55827;SDS011;41758;51.992;5.890;2023-03-14T08:09:32;4.63;;;1.50;;
55827;SDS011;41758;51.992;5.890;2023-03-14T08:11:58;2.13;;;1.20;;
55827;SDS011;41758;51.992;5.890;2023-03-14T08:14:24;2.15;;;1.25;;
55827;SDS011;41758;51.992;5.890;2023-03-14T08:16:50;1.77;;;1.20;;
55827;SDS011;41758;51.992;5.890;2023-03-14T08:19:16;3.90;;;1.50;;
55827;SDS011;41758;51.992;5.890;2023-03-14T08:21:42;1.83;;;1.27;;
55827;SDS011;41758;51.992;5.890;2023-03-14T08:24:07;2.15;;;1.10;;
55827;SDS011;41758;51.992;5.890;2023-03-14T08:26:33;2.40;;;1.20;;
55827;SDS011;41758;51.992;5.890;2023-03-14T08:28:59;2.33;;;1.38;;
55827;SDS011;41758;51.992;5.890;2023-03-14T08:31:25;2.25;;;1.42;;
55827;SDS011;41758;51.992;5.890;2023-03-14T08:33:50;3.80;;;1.40;;
55827;SDS011;41758;51.992;5.890;2023-03-14T08:36:17;2.47;;;1.33;;
55827;SDS011;41758;51.992;5.890;2023-03-14T08:38:44;2.55;;;1.50;;
55827;SDS011;41758;51.992;5.890;2023-03-14T08:41:13;2.53;;;1.33;;
55827;SDS011;41758;51.992;5.890;2023-03-14T08:43:38;3.30;;;1.42;;
55827;SDS011;41758;51.992;5.890;2023-03-14T08:46:04;2.15;;;1.38;;
55827;SDS011;41758;51.992;5.890;2023-03-14T08:48:30;6.22;;;1.40;;
55827;SDS011;41758;51.992;5.890;2023-03-14T08:50:56;3.72;;;1.30;;
55827;SDS011;41758;51.992;5.890;2023-03-14T08:53:28;3.10;;;1.40;;
55827;SDS011;41758;51.992;5.890;2023-03-14T08:55:54;4.22;;;1.60;;
55827;SDS011;41758;51.992;5.890;2023-03-14T08:58:20;5.47;;;1.60;;
55827;SDS011;41758;51.992;5.890;2023-03-14T09:00:47;2.03;;;1.30;;
55827;SDS011;41758;51.992;5.890;2023-03-14T09:03:13;4.50;;;1.60;;
55827;SDS011;41758;51.992;5.890;2023-03-14T09:05:39;6.43;;;1.50;;
55827;SDS011;41758;51.992;5.890;2023-03-14T09:08:05;3.60;;;1.33;;
55827;SDS011;41758;51.992;5.890;2023-03-14T09:10:31;3.35;;;1.50;;
55827;SDS011;41758;51.992;5.890;2023-03-14T09:12:56;3.60;;;1.35;;
55827;SDS011;41758;51.992;5.890;2023-03-14T09:15:23;5.55;;;1.65;;
55827;SDS011;41758;51.992;5.890;2023-03-14T09:17:49;4.53;;;1.70;;
55827;SDS011;41758;51.992;5.890;2023-03-14T09:20:15;3.42;;;1.40;;
55827;SDS011;41758;51.992;5.890;2023-03-14T09:22:41;3.78;;;1.20;;
55827;SDS011;41758;51.992;5.890;2023-03-14T09:25:12;1.67;;;0.98;;
55827;SDS011;41758;51.992;5.890;2023-03-14T09:27:37;3.13;;;1.10;;
55827;SDS011;41758;51.992;5.890;2023-03-14T09:30:03;4.30;;;1.20;;
55827;SDS011;41758;51.992;5.890;2023-03-14T09:32:29;2.42;;;1.33;;
55827;SDS011;41758;51.992;5.890;2023-03-14T09:34:56;3.88;;;1.42;;
55827;SDS011;41758;51.992;5.890;2023-03-14T09:37:22;2.55;;;1.30;;
55827;SDS011;41758;51.992;5.890;2023-03-14T09:39:48;4.28;;;1.23;;
55827;SDS011;41758;51.992;5.890;2023-03-14T09:42:17;5.72;;;1.23;;
55827;SDS011;41758;51.992;5.890;2023-03-14T09:44:52;6.53;;;1.40;;
55827;SDS011;41758;51.992;5.890;2023-03-14T09:47:21;1.67;;;1.05;;
55827;SDS011;41758;51.992;5.890;2023-03-14T09:49:48;2.88;;;1.30;;
55827;SDS011;41758;51.992;5.890;2023-03-14T09:52:15;3.67;;;1.20;;
55827;SDS011;41758;51.992;5.890;2023-03-14T09:55:05;1.50;;;1.05;;
55827;SDS011;41758;51.992;5.890;2023-03-14T09:57:36;2.67;;;1.33;;
55827;SDS011;41758;51.992;5.890;2023-03-14T10:00:04;3.50;;;1.30;;
55827;SDS011;41758;51.992;5.890;2023-03-14T10:05:39;3.63;;;1.30;;
55827;SDS011;41758;51.992;5.890;2023-03-14T10:08:06;3.33;;;1.42;;
55827;SDS011;41758;51.992;5.890;2023-03-14T10:10:34;5.70;;;1.60;;
55827;SDS011;41758;51.992;5.890;2023-03-14T10:15:39;5.85;;;1.83;;
55827;SDS011;41758;51.992;5.890;2023-03-14T10:18:09;4.35;;;1.70;;
55827;SDS011;41758;51.992;5.890;2023-03-14T10:20:40;4.72;;;1.75;;
55827;SDS011;41758;51.992;5.890;2023-03-14T10:25:39;4.65;;;1.52;;
55827;SDS011;41758;51.992;5.890;2023-03-14T10:28:28;6.70;;;1.85;;
55827;SDS011;41758;51.992;5.890;2023-03-14T10:30:57;5.35;;;2.00;;
55827;SDS011;41758;51.992;5.890;2023-03-14T10:33:24;7.60;;;2.25;;
55827;SDS011;41758;51.992;5.890;2023-03-14T10:35:53;8.82;;;2.03;;
55827;SDS011;41758;51.992;5.890;2023-03-14T10:38:25;8.88;;;2.50;;
55827;SDS011;41758;51.992;5.890;2023-03-14T10:40:53;6.80;;;2.20;;
55827;SDS011;41758;51.992;5.890;2023-03-14T10:43:25;6.53;;;2.10;;
55827;SDS011;41758;51.992;5.890;2023-03-14T10:45:59;6.35;;;2.40;;
55827;SDS011;41758;51.992;5.890;2023-03-14T10:51:04;7.05;;;2.10;;
55827;SDS011;41758;51.992;5.890;2023-03-14T10:56:11;9.15;;;2.38;;
55827;SDS011;41758;51.992;5.890;2023-03-14T10:58:48;9.55;;;2.60;;
55827;SDS011;41758;51.992;5.890;2023-03-14T11:04:18;9.13;;;2.15;;
55827;SDS011;41758;51.992;5.890;2023-03-14T11:06:56;9.95;;;2.35;;
55827;SDS011;41758;51.992;5.890;2023-03-14T11:09:36;7.20;;;2.28;;
55827;SDS011;41758;51.992;5.890;2023-03-14T11:14:53;9.50;;;2.33;;
55827;SDS011;41758;51.992;5.890;2023-03-14T11:20:22;12.68;;;2.58;;
55827;SDS011;41758;51.992;5.890;2023-03-14T11:23:17;8.10;;;2.45;;
55827;SDS011;41758;51.992;5.890;2023-03-14T11:26:07;9.40;;;2.45;;
55827;SDS011;41758;51.992;5.890;2023-03-14T11:28:47;7.05;;;2.30;;
55827;SDS011;41758;51.992;5.890;2023-03-14T11:31:19;10.82;;;2.55;;
55827;SDS011;41758;51.992;5.890;2023-03-14T11:36:56;8.87;;;2.27;;
55827;SDS011;41758;51.992;5.890;2023-03-14T11:39:26;10.05;;;2.55;;
55827;SDS011;41758;51.992;5.890;2023-03-14T11:42:01;7.68;;;2.17;;
55827;SDS011;41758;51.992;5.890;2023-03-14T11:44:36;5.85;;;2.40;;
55827;SDS011;41758;51.992;5.890;2023-03-14T11:47:15;11.15;;;3.05;;
55827;SDS011;41758;51.992;5.890;2023-03-14T11:49:49;10.40;;;2.40;;
55827;SDS011;41758;51.992;5.890;2023-03-14T11:52:25;8.80;;;2.40;;
55827;SDS011;41758;51.992;5.890;2023-03-14T11:55:05;8.90;;;2.35;;
55827;SDS011;41758;51.992;5.890;2023-03-14T11:57:37;8.57;;;2.47;;
55827;SDS011;41758;51.992;5.890;2023-03-14T12:05:39;13.02;;;2.80;;
55827;SDS011;41758;51.992;5.890;2023-03-14T12:13:48;9.80;;;2.53;;
55827;SDS011;41758;51.992;5.890;2023-03-14T12:16:25;8.60;;;2.95;;
55827;SDS011;41758;51.992;5.890;2023-03-14T12:19:21;9.02;;;2.33;;
55827;SDS011;41758;51.992;5.890;2023-03-14T12:24:29;4.72;;;1.70;;
55827;SDS011;41758;51.992;5.890;2023-03-14T12:27:00;5.95;;;1.83;;
55827;SDS011;41758;51.992;5.890;2023-03-14T12:29:28;5.82;;;2.20;;
55827;SDS011;41758;51.992;5.890;2023-03-14T12:34:30;11.05;;;2.17;;
55827;SDS011;41758;51.992;5.890;2023-03-14T12:42:54;4.53;;;1.75;;
55827;SDS011;41758;51.992;5.890;2023-03-14T12:50:40;4.30;;;1.63;;
55827;SDS011;41758;51.992;5.890;2023-03-14T12:56:15;3.20;;;1.50;;
55827;SDS011;41758;51.992;5.890;2023-03-14T13:01:16;6.13;;;2.05;;
55827;SDS011;41758;51.992;5.890;2023-03-14T13:03:45;7.00;;;1.80;;
55827;SDS011;41758;51.992;5.890;2023-03-14T13:12:01;4.70;;;1.65;;
55827;SDS011;41758;51.992;5.890;2023-03-14T13:14:45;6.35;;;1.70;;
55827;SDS011;41758;51.992;5.890;2023-03-14T13:17:26;3.13;;;1.30;;
55827;SDS011;41758;51.992;5.890;2023-03-14T13:20:00;5.18;;;1.50;;
55827;SDS011;41758;51.992;5.890;2023-03-14T13:22:36;6.97;;;1.92;;
55827;SDS011;41758;51.992;5.890;2023-03-14T13:25:07;4.78;;;1.70;;
55827;SDS011;41758;51.992;5.890;2023-03-14T13:27:36;3.75;;;1.52;;
55827;SDS011;41758;51.992;5.890;2023-03-14T13:32:52;5.10;;;1.42;;
55827;SDS011;41758;51.992;5.890;2023-03-14T13:35:20;3.58;;;1.40;;
55827;SDS011;41758;51.992;5.890;2023-03-14T13:37:55;3.05;;;1.20;;
55827;SDS011;41758;51.992;5.890;2023-03-14T13:40:30;5.55;;;1.70;;
55827;SDS011;41758;51.992;5.890;2023-03-14T13:45:53;3.00;;;1.33;;
55827;SDS011;41758;51.992;5.890;2023-03-14T13:48:22;6.82;;;1.63;;
55827;SDS011;41758;51.992;5.890;2023-03-14T13:50:53;3.28;;;1.48;;
55827;SDS011;41758;51.992;5.890;2023-03-14T13:53:24;3.72;;;1.27;;
55827;SDS011;41758;51.992;5.890;2023-03-14T13:55:50;4.82;;;1.45;;
55827;SDS011;41758;51.992;5.890;2023-03-14T13:58:24;3.58;;;1.63;;
55827;SDS011;41758;51.992;5.890;2023-03-14T14:01:00;6.55;;;1.88;;
55827;SDS011;41758;51.992;5.890;2023-03-14T14:03:30;5.03;;;1.67;;
55827;SDS011;41758;51.992;5.890;2023-03-14T14:05:57;3.03;;;1.33;;
55827;SDS011;41758;51.992;5.890;2023-03-14T14:08:24;3.78;;;1.40;;
55827;SDS011;41758;51.992;5.890;2023-03-14T14:10:52;5.38;;;1.48;;
55827;SDS011;41758;51.992;5.890;2023-03-14T14:13:24;5.22;;;1.58;;
55827;SDS011;41758;51.992;5.890;2023-03-14T14:15:52;3.03;;;1.33;;
55827;SDS011;41758;51.992;5.890;2023-03-14T14:18:20;3.13;;;1.50;;
55827;SDS011;41758;51.992;5.890;2023-03-14T14:20:49;6.88;;;1.77;;
55827;SDS011;41758;51.992;5.890;2023-03-14T14:23:20;4.38;;;1.80;;
55827;SDS011;41758;51.992;5.890;2023-03-14T14:25:51;2.95;;;1.38;;
55827;SDS011;41758;51.992;5.890;2023-03-14T14:28:23;6.05;;;1.52;;
55827;SDS011;41758;51.992;5.890;2023-03-14T14:30:59;4.85;;;1.50;;
55827;SDS011;41758;51.992;5.890;2023-03-14T14:33:37;4.63;;;1.73;;
55827;SDS011;41758;51.992;5.890;2023-03-14T14:38:50;7.65;;;1.63;;
55827;SDS011;41758;51.992;5.890;2023-03-14T14:41:17;3.28;;;1.40;;
55827;SDS011;41758;51.992;5.890;2023-03-14T14:43:43;3.55;;;1.38;;
55827;SDS011;41758;51.992;5.890;2023-03-14T14:46:08;2.88;;;1.40;;
55827;SDS011;41758;51.992;5.890;2023-03-14T14:48:36;5.43;;;1.45;;
55827;SDS011;41758;51.992;5.890;2023-03-14T14:51:03;3.63;;;1.60;;
55827;SDS011;41758;51.992;5.890;2023-03-14T14:53:41;3.38;;;1.60;;
55827;SDS011;41758;51.992;5.890;2023-03-14T14:56:16;5.85;;;1.70;;
55827;SDS011;41758;51.992;5.890;2023-03-14T14:58:46;5.68;;;1.48;;
55827;SDS011;41758;51.992;5.890;2023-03-14T15:01:22;4.45;;;1.35;;
55827;SDS011;41758;51.992;5.890;2023-03-14T15:03:52;3.92;;;1.40;;
55827;SDS011;41758;51.992;5.890;2023-03-14T15:06:19;4.80;;;1.48;;
55827;SDS011;41758;51.992;5.890;2023-03-14T15:08:46;3.90;;;1.50;;
55827;SDS011;41758;51.992;5.890;2023-03-14T15:13:41;4.05;;;1.33;;
55827;SDS011;41758;51.992;5.890;2023-03-14T15:16:10;6.60;;;1.65;;
55827;SDS011;41758;51.992;5.890;2023-03-14T15:18:37;3.38;;;1.20;;
55827;SDS011;41758;51.992;5.890;2023-03-14T15:21:03;5.35;;;1.80;;
55827;SDS011;41758;51.992;5.890;2023-03-14T15:23:29;3.35;;;1.42;;
55827;SDS011;41758;51.992;5.890;2023-03-14T15:25:55;2.95;;;1.40;;
55827;SDS011;41758;51.992;5.890;2023-03-14T15:28:21;5.65;;;1.70;;
55827;SDS011;41758;51.992;5.890;2023-03-14T15:30:53;3.42;;;1.58;;
55827;SDS011;41758;51.992;5.890;2023-03-14T15:33:20;2.95;;;1.42;;
55827;SDS011;41758;51.992;5.890;2023-03-14T15:35:47;5.05;;;1.88;;
55827;SDS011;41758;51.992;5.890;2023-03-14T15:38:14;7.10;;;2.00;;
55827;SDS011;41758;51.992;5.890;2023-03-14T15:40:49;8.48;;;2.22;;
55827;SDS011;41758;51.992;5.890;2023-03-14T15:43:16;7.18;;;1.75;;
55827;SDS011;41758;51.992;5.890;2023-03-14T15:45:42;5.60;;;1.75;;
55827;SDS011;41758;51.992;5.890;2023-03-14T15:48:12;7.68;;;2.05;;
55827;SDS011;41758;51.992;5.890;2023-03-14T15:50:43;7.10;;;1.90;;
55827;SDS011;41758;51.992;5.890;2023-03-14T15:53:09;4.05;;;1.60;;
55827;SDS011;41758;51.992;5.890;2023-03-14T15:55:36;7.07;;;2.28;;
55827;SDS011;41758;51.992;5.890;2023-03-14T15:58:01;7.70;;;1.90;;
55827;SDS011;41758;51.992;5.890;2023-03-14T16:00:27;6.72;;;2.00;;
55827;SDS011;41758;51.992;5.890;2023-03-14T16:02:54;4.53;;;1.80;;
55827;SDS011;41758;51.992;5.890;2023-03-14T16:05:19;6.35;;;2.15;;
55827;SDS011;41758;51.992;5.890;2023-03-14T16:07:45;6.30;;;1.80;;
55827;SDS011;41758;51.992;5.890;2023-03-14T16:10:12;5.57;;;1.95;;
55827;SDS011;41758;51.992;5.890;2023-03-14T16:12:39;4.53;;;1.75;;
55827;SDS011;41758;51.992;5.890;2023-03-14T16:15:05;4.72;;;2.13;;
55827;SDS011;41758;51.992;5.890;2023-03-14T16:17:31;6.25;;;1.77;;
55827;SDS011;41758;51.992;5.890;2023-03-14T16:19:58;4.30;;;1.83;;
55827;SDS011;41758;51.992;5.890;2023-03-14T16:22:23;7.40;;;1.92;;
55827;SDS011;41758;51.992;5.890;2023-03-14T16:24:49;7.25;;;2.10;;
55827;SDS011;41758;51.992;5.890;2023-03-14T16:27:15;7.20;;;1.98;;
55827;SDS011;41758;51.992;5.890;2023-03-14T16:29:41;4.70;;;1.90;;
55827;SDS011;41758;51.992;5.890;2023-03-14T16:32:07;6.22;;;1.95;;